Airport View

Enter ICAO identifier to see the current METAR for that AWOS.

KFNL for example

KSFF 281753Z 00000KT 10SM CLR 29/08 A3011

28 Jul 2014 18:25

Phone: 509-624-4406

Other Area AWOS: KGEG - KSKA - KDEW - KCOE

TAF KSFF 281736Z 2818/2918 VRB03KT P6SM SCT140